createdAt,value
2023-03-11T00:01:26.900Z,1.53
2023-03-11T00:03:54.458Z,1.60
2023-03-11T00:06:22.032Z,1.50
2023-03-11T00:08:49.851Z,1.80
2023-03-11T00:11:17.708Z,1.73
2023-03-11T00:13:46.852Z,1.93
2023-03-11T00:16:14.499Z,1.60
2023-03-11T00:18:42.319Z,1.60
2023-03-11T00:21:15.358Z,1.63
2023-03-11T00:23:43.292Z,1.50
2023-03-11T00:26:10.928Z,1.47
2023-03-11T00:28:38.658Z,1.30
2023-03-11T00:31:07.889Z,1.60
2023-03-11T00:33:35.712Z,1.60
2023-03-11T00:36:04.017Z,1.50
2023-03-11T00:38:31.663Z,1.60
2023-03-11T00:41:01.742Z,1.70
2023-03-11T00:43:29.384Z,1.70
2023-03-11T00:45:57.253Z,2.23
2023-03-11T00:48:26.256Z,1.50
2023-03-11T00:50:53.836Z,1.60
2023-03-11T00:53:21.556Z,1.60
2023-03-11T00:55:49.088Z,1.60
2023-03-11T00:58:16.673Z,1.80
2023-03-11T01:00:44.196Z,1.83
2023-03-11T01:03:11.782Z,1.77
2023-03-11T01:05:40.794Z,1.70
2023-03-11T01:08:08.381Z,2.00
2023-03-11T01:10:36.715Z,2.10
2023-03-11T01:13:04.726Z,1.90
2023-03-11T01:15:33.557Z,1.63
2023-03-11T01:18:01.220Z,1.80
2023-03-11T01:20:29.040Z,2.10
2023-03-11T01:22:58.422Z,2.03
2023-03-11T01:25:26.280Z,1.77
2023-03-11T01:27:53.947Z,1.60
2023-03-11T01:30:22.422Z,1.80
2023-03-11T01:32:50.501Z,2.00
2023-03-11T01:35:19.054Z,2.00
2023-03-11T01:37:47.251Z,1.90
2023-03-11T01:40:29.733Z,2.13
2023-03-11T01:42:57.634Z,1.73
2023-03-11T01:45:34.020Z,1.80
2023-03-11T01:48:01.621Z,2.00
2023-03-11T01:50:32.312Z,2.00
2023-03-11T01:53:00.367Z,1.80
2023-03-11T01:55:29.469Z,1.90
2023-03-11T01:57:57.064Z,2.00
2023-03-11T02:00:24.752Z,2.23
2023-03-11T02:02:53.169Z,1.97
2023-03-11T02:05:22.120Z,3.30
2023-03-11T02:07:50.248Z,2.10
2023-03-11T02:10:18.267Z,2.30
2023-03-11T02:12:47.977Z,2.63
2023-03-11T02:15:15.976Z,2.30
2023-03-11T02:17:44.260Z,1.90
2023-03-11T02:20:17.132Z,2.30
2023-03-11T02:22:45.100Z,1.90
2023-03-11T02:25:17.608Z,1.93
2023-03-11T02:27:48.124Z,2.20
2023-03-11T02:30:16.356Z,1.90
2023-03-11T02:32:44.562Z,2.17
2023-03-11T02:35:12.669Z,2.20
2023-03-11T02:37:44.590Z,1.73
2023-03-11T02:40:32.665Z,2.10
2023-03-11T02:43:03.043Z,2.20
2023-03-11T02:45:31.647Z,1.90
2023-03-11T02:48:00.214Z,2.03
2023-03-11T02:50:29.844Z,2.00
2023-03-11T02:52:57.728Z,2.20
2023-03-11T02:55:25.396Z,1.70
2023-03-11T02:57:52.984Z,2.50
2023-03-11T03:00:22.351Z,1.83
2023-03-11T03:02:51.782Z,2.23
2023-03-11T03:05:20.559Z,2.10
2023-03-11T03:07:48.427Z,2.40
2023-03-11T03:10:16.307Z,1.80
2023-03-11T03:12:43.910Z,2.00
2023-03-11T03:15:12.191Z,1.90
2023-03-11T03:17:41.577Z,2.00
2023-03-11T03:20:12.662Z,2.20
2023-03-11T03:22:40.384Z,2.30
2023-03-11T03:25:08.788Z,2.07
2023-03-11T03:27:36.707Z,1.80
2023-03-11T03:30:04.749Z,1.80
2023-03-11T03:32:32.423Z,1.80
2023-03-11T03:35:01.826Z,1.80
2023-03-11T03:37:29.645Z,1.77
2023-03-11T03:39:57.226Z,1.70
2023-03-11T03:42:25.275Z,2.07
2023-03-11T03:44:53.378Z,1.87
2023-03-11T03:47:21.016Z,2.10
2023-03-11T03:49:48.759Z,1.63
2023-03-11T03:52:17.841Z,1.83
2023-03-11T03:54:45.591Z,1.77
2023-03-11T03:57:13.122Z,1.63
2023-03-11T03:59:40.764Z,1.77
2023-03-11T04:02:08.426Z,1.73
2023-03-11T04:04:36.229Z,1.80
2023-03-11T04:07:04.790Z,1.70
2023-03-11T04:09:34.030Z,1.90
2023-03-11T04:12:01.640Z,1.50
2023-03-11T04:14:32.301Z,1.93
2023-03-11T04:17:00.024Z,1.63
2023-03-11T04:19:27.645Z,1.40
2023-03-11T04:21:55.364Z,1.97
2023-03-11T04:24:25.625Z,1.83
2023-03-11T04:26:54.530Z,1.87
2023-03-11T04:29:24.741Z,1.83
2023-03-11T04:31:52.288Z,1.30
2023-03-11T04:34:19.865Z,1.90
2023-03-11T04:36:47.385Z,1.47
2023-03-11T04:39:17.998Z,1.60
2023-03-11T04:41:45.695Z,1.50
2023-03-11T04:44:14.653Z,1.73
2023-03-11T04:46:42.185Z,1.60
2023-03-11T04:49:09.981Z,1.73
2023-03-11T04:51:40.693Z,1.63
2023-03-11T04:54:08.279Z,1.80
2023-03-11T04:56:37.618Z,1.63
2023-03-11T04:59:05.123Z,1.90
2023-03-11T05:01:34.081Z,2.07
2023-03-11T05:04:01.627Z,1.73
2023-03-11T05:06:29.177Z,2.60
2023-03-11T05:08:56.721Z,1.70
2023-03-11T05:11:24.267Z,1.70
2023-03-11T05:13:51.801Z,2.10
2023-03-11T05:16:19.366Z,1.83
2023-03-11T05:18:48.395Z,1.70
2023-03-11T05:21:15.968Z,1.90
2023-03-11T05:23:45.308Z,1.70
2023-03-11T05:26:12.799Z,1.90
2023-03-11T05:28:40.361Z,1.97
2023-03-11T05:31:09.315Z,1.83
2023-03-11T05:33:36.928Z,2.27
2023-03-11T05:36:07.001Z,2.40
2023-03-11T05:38:34.520Z,2.00
2023-03-11T05:41:02.237Z,2.20
2023-03-11T05:43:29.802Z,2.20
2023-03-11T05:45:57.356Z,1.63
2023-03-11T05:48:24.945Z,2.40
2023-03-11T05:50:52.528Z,1.80
2023-03-11T05:53:21.418Z,2.20
2023-03-11T05:55:56.634Z,2.10
2023-03-11T05:58:24.188Z,2.10
2023-03-11T06:00:51.783Z,2.23
2023-03-11T06:03:19.394Z,1.90
2023-03-11T06:05:47.005Z,2.60
2023-03-11T06:08:14.749Z,2.37
2023-03-11T06:10:43.764Z,2.30
2023-03-11T06:13:11.998Z,2.33
2023-03-11T06:15:39.823Z,2.27
2023-03-11T06:18:08.772Z,2.60
2023-03-11T06:20:37.849Z,2.40
2023-03-11T06:23:05.445Z,2.80
2023-03-11T06:25:32.923Z,4.10
2023-03-11T06:28:03.913Z,5.07
2023-03-11T06:30:31.566Z,2.47
2023-03-11T06:32:59.114Z,2.83
2023-03-11T06:35:26.737Z,2.37
2023-03-11T06:37:54.431Z,2.30
2023-03-11T06:40:25.063Z,2.10
2023-03-11T06:42:52.607Z,2.00
2023-03-11T06:45:21.573Z,1.93
2023-03-11T06:47:49.347Z,2.00
2023-03-11T06:50:17.435Z,2.17
2023-03-11T06:52:44.941Z,2.50
2023-03-11T06:55:12.485Z,2.23
2023-03-11T06:57:42.256Z,2.27
2023-03-11T07:00:14.773Z,2.30
2023-03-11T07:02:43.820Z,2.80
2023-03-11T07:05:12.540Z,2.80
2023-03-11T07:07:40.070Z,2.43
2023-03-11T07:10:08.195Z,2.03
2023-03-11T07:12:35.835Z,2.40
2023-03-11T07:15:03.509Z,2.40
2023-03-11T07:17:32.000Z,3.17
2023-03-11T07:20:03.551Z,2.87
2023-03-11T07:22:31.410Z,2.40
2023-03-11T07:24:59.960Z,4.43
2023-03-11T07:27:28.553Z,3.50
2023-03-11T07:29:56.213Z,1.90
2023-03-11T07:32:24.155Z,2.30
2023-03-11T07:34:51.718Z,2.23
2023-03-11T07:37:20.667Z,2.80
2023-03-11T07:39:48.231Z,3.20
2023-03-11T07:42:15.803Z,2.70
2023-03-11T07:44:43.558Z,2.50
2023-03-11T07:47:11.111Z,2.10
2023-03-11T07:49:38.674Z,2.13
2023-03-11T07:52:06.826Z,2.23
2023-03-11T07:54:36.044Z,2.20
2023-03-11T07:57:04.016Z,2.27
2023-03-11T07:59:31.520Z,2.20
2023-03-11T08:01:59.134Z,2.00
2023-03-11T08:04:26.679Z,2.77
2023-03-11T08:06:54.241Z,2.03
2023-03-11T08:09:24.918Z,2.03
2023-03-11T08:11:53.891Z,2.30
2023-03-11T08:14:21.554Z,2.43
2023-03-11T08:16:49.415Z,4.13
2023-03-11T08:19:17.053Z,2.20
2023-03-11T08:21:44.655Z,2.03
2023-03-11T08:24:13.178Z,2.00
2023-03-11T08:26:41.287Z,2.33
2023-03-11T08:29:10.231Z,2.50
2023-03-11T08:31:40.559Z,1.97
2023-03-11T08:34:13.095Z,2.13
2023-03-11T08:36:40.875Z,2.27
2023-03-11T08:39:08.829Z,2.33
2023-03-11T08:41:37.025Z,2.50
2023-03-11T08:44:04.775Z,2.47
2023-03-11T08:46:34.860Z,2.40
2023-03-11T08:49:03.042Z,1.80
2023-03-11T08:51:34.317Z,1.90
2023-03-11T08:54:02.625Z,2.30
2023-03-11T08:56:30.268Z,2.27
2023-03-11T08:58:57.878Z,2.27
2023-03-11T09:01:25.723Z,2.00
2023-03-11T09:03:54.639Z,2.27
2023-03-11T09:06:22.516Z,1.90
2023-03-11T09:08:50.189Z,1.90
2023-03-11T09:11:18.612Z,1.97
2023-03-11T09:13:46.212Z,2.50
2023-03-11T09:16:14.410Z,2.17
2023-03-11T09:18:42.082Z,2.03
2023-03-11T09:21:11.346Z,2.30
2023-03-11T09:23:38.909Z,1.53
2023-03-11T09:26:06.494Z,2.07
2023-03-11T09:28:34.154Z,2.07
2023-03-11T09:31:01.843Z,2.63
2023-03-11T09:33:29.678Z,2.50
2023-03-11T09:35:58.403Z,2.67
2023-03-11T09:38:28.472Z,2.77
2023-03-11T09:41:03.096Z,1.98
2023-03-11T09:43:36.039Z,1.97
2023-03-11T09:46:08.092Z,2.15
2023-03-11T09:48:38.573Z,2.00
2023-03-11T09:51:10.172Z,1.77
2023-03-11T09:53:43.305Z,2.05
2023-03-11T09:56:12.123Z,1.80
2023-03-11T09:58:42.698Z,2.13
2023-03-11T10:01:15.580Z,2.60
2023-03-11T10:03:44.085Z,1.75
2023-03-11T10:06:15.370Z,1.77
2023-03-11T10:08:46.857Z,1.90
2023-03-11T10:11:32.959Z,2.00
2023-03-11T10:14:11.311Z,1.77
2023-03-11T10:16:42.556Z,2.17
2023-03-11T10:19:12.663Z,2.03
2023-03-11T10:21:44.476Z,1.97
2023-03-11T10:24:18.993Z,1.92
2023-03-11T10:26:48.188Z,1.90
2023-03-11T10:29:19.086Z,1.87
2023-03-11T10:31:49.867Z,1.70
2023-03-11T10:34:22.268Z,2.05
2023-03-11T10:36:54.905Z,1.55
2023-03-11T10:39:24.142Z,1.65
2023-03-11T10:41:53.740Z,1.33
2023-03-11T10:44:24.065Z,1.73
2023-03-11T10:46:51.567Z,1.60
2023-03-11T10:49:19.363Z,1.77
2023-03-11T10:51:47.537Z,1.50
2023-03-11T10:54:22.482Z,1.70
2023-03-11T10:56:55.187Z,1.70
2023-03-11T10:59:24.945Z,1.57
2023-03-11T11:01:56.604Z,1.63
2023-03-11T11:04:27.454Z,1.93
2023-03-11T11:06:55.037Z,1.50
2023-03-11T11:09:26.882Z,1.70
2023-03-11T11:12:04.208Z,1.90
2023-03-11T11:14:44.908Z,1.67
2023-03-11T11:17:18.080Z,1.60
2023-03-11T11:19:46.285Z,1.70
2023-03-11T11:22:17.197Z,1.90
2023-03-11T11:24:46.111Z,1.80
2023-03-11T11:27:19.677Z,1.65
2023-03-11T11:29:48.632Z,2.00
2023-03-11T11:32:21.044Z,2.00
2023-03-11T11:34:57.964Z,2.40
2023-03-11T11:37:26.884Z,1.50
2023-03-11T11:39:56.854Z,1.83
2023-03-11T11:42:27.222Z,1.85
2023-03-11T11:44:57.771Z,2.10
2023-03-11T11:47:26.527Z,1.83
2023-03-11T11:49:55.863Z,2.00
2023-03-11T11:52:25.529Z,1.95
2023-03-11T11:54:54.938Z,1.58
2023-03-11T11:57:26.825Z,1.58
2023-03-11T11:59:56.466Z,3.22
2023-03-11T12:02:31.998Z,1.52
2023-03-11T12:05:04.715Z,1.95
2023-03-11T12:07:39.413Z,1.65
2023-03-11T12:10:24.145Z,1.70
2023-03-11T12:13:10.271Z,2.00
2023-03-11T12:15:40.249Z,1.90
2023-03-11T12:18:11.763Z,1.40
2023-03-11T12:20:42.333Z,1.60
2023-03-11T12:23:19.998Z,1.85
2023-03-11T12:26:05.498Z,1.77
2023-03-11T12:28:41.667Z,1.80
2023-03-11T12:31:10.205Z,1.48
2023-03-11T12:33:41.837Z,1.48
2023-03-11T12:36:21.827Z,2.00
2023-03-11T12:38:49.967Z,1.40
2023-03-11T12:41:30.915Z,1.15
2023-03-11T12:44:03.775Z,1.42
2023-03-11T12:46:50.054Z,2.17
2023-03-11T12:49:24.146Z,1.55
2023-03-11T12:52:18.572Z,1.50
2023-03-11T12:54:46.784Z,1.30
2023-03-11T12:57:27.410Z,1.58
2023-03-11T13:00:18.098Z,1.50
2023-03-11T13:02:57.661Z,1.73
2023-03-11T13:05:28.209Z,1.42
2023-03-11T13:07:59.045Z,1.30
2023-03-11T13:10:37.964Z,1.90
2023-03-11T13:13:20.515Z,1.38
2023-03-11T13:15:49.717Z,1.50
2023-03-11T13:18:24.491Z,1.30
2023-03-11T13:20:56.094Z,3.10
2023-03-11T13:23:27.975Z,1.73
2023-03-11T13:26:22.731Z,1.83
2023-03-11T13:28:58.935Z,2.53
2023-03-11T13:31:38.560Z,1.40
2023-03-11T13:34:14.286Z,1.92
2023-03-11T13:36:57.055Z,1.50
2023-03-11T13:39:41.739Z,1.58
2023-03-11T13:42:19.064Z,1.55
2023-03-11T13:44:47.729Z,1.60
2023-03-11T13:47:18.170Z,1.58
2023-03-11T13:49:47.859Z,1.52
2023-03-11T13:52:16.754Z,2.05
2023-03-11T13:54:46.320Z,2.10
2023-03-11T13:57:24.118Z,1.60
2023-03-11T13:59:55.150Z,1.40
2023-03-11T14:02:25.133Z,1.40
2023-03-11T14:05:07.069Z,1.90
2023-03-11T14:07:37.606Z,1.50
2023-03-11T14:10:22.202Z,1.50
2023-03-11T14:12:57.017Z,1.55
2023-03-11T14:15:28.118Z,1.65
2023-03-11T14:18:16.856Z,1.50
2023-03-11T14:20:48.611Z,1.98
2023-03-11T14:23:19.478Z,1.55
2023-03-11T14:25:47.346Z,1.70
2023-03-11T14:28:18.936Z,1.65
2023-03-11T14:30:56.546Z,1.58
2023-03-11T14:33:26.294Z,1.60
2023-03-11T14:35:55.209Z,2.08
2023-03-11T14:38:26.818Z,3.60
2023-03-11T14:40:55.487Z,1.88
2023-03-11T14:43:23.149Z,2.13
2023-03-11T14:45:52.255Z,1.60
2023-03-11T14:48:22.652Z,2.70
2023-03-11T14:50:51.919Z,1.50
2023-03-11T14:53:24.028Z,1.50
2023-03-11T14:55:57.195Z,1.48
2023-03-11T14:58:29.267Z,1.70
2023-03-11T15:00:59.530Z,1.77
2023-03-11T15:03:38.314Z,1.60
2023-03-11T15:06:09.594Z,1.63
2023-03-11T15:08:49.957Z,1.45
2023-03-11T15:11:24.403Z,1.58
2023-03-11T15:13:53.278Z,2.40
2023-03-11T15:16:25.886Z,1.63
2023-03-11T15:18:56.335Z,1.60
2023-03-11T15:21:27.649Z,1.98
2023-03-11T15:23:58.280Z,1.48
2023-03-11T15:26:26.651Z,1.80
2023-03-11T15:28:55.523Z,1.80
2023-03-11T15:31:31.601Z,1.60
2023-03-11T15:34:13.391Z,1.88
2023-03-11T15:36:46.245Z,2.30
2023-03-11T15:39:15.592Z,1.70
2023-03-11T15:41:43.806Z,1.73
2023-03-11T15:44:29.227Z,1.77
2023-03-11T15:46:57.134Z,1.52
2023-03-11T15:49:24.706Z,1.88
2023-03-11T15:51:53.606Z,1.80
2023-03-11T15:54:21.200Z,1.67
2023-03-11T15:56:48.864Z,2.67
2023-03-11T15:59:17.807Z,2.83
2023-03-11T16:01:47.163Z,1.88
2023-03-11T16:04:16.052Z,1.73
2023-03-11T16:06:44.105Z,2.20
2023-03-11T16:09:13.566Z,2.15
2023-03-11T16:11:42.158Z,1.80
2023-03-11T16:14:15.657Z,1.70
2023-03-11T16:16:43.332Z,1.98
2023-03-11T16:19:11.098Z,2.03
2023-03-11T16:21:41.724Z,1.90
2023-03-11T16:24:09.757Z,2.25
2023-03-11T16:26:39.033Z,2.08
2023-03-11T16:29:18.666Z,2.20
2023-03-11T16:31:46.991Z,1.90
2023-03-11T16:34:14.793Z,4.03
2023-03-11T16:36:44.826Z,2.13
2023-03-11T16:39:13.806Z,2.40
2023-03-11T16:41:43.808Z,2.20
2023-03-11T16:44:15.010Z,1.80
2023-03-11T16:46:42.652Z,1.92
2023-03-11T16:49:10.357Z,2.35
2023-03-11T16:51:38.084Z,3.00
2023-03-11T16:54:07.819Z,2.10
2023-03-11T16:56:35.896Z,1.95
2023-03-11T16:59:04.769Z,2.13
2023-03-11T17:01:32.352Z,1.92
2023-03-11T17:04:00.234Z,2.05
2023-03-11T17:06:27.760Z,1.88
2023-03-11T17:08:55.331Z,2.50
2023-03-11T17:11:24.392Z,10.55
2023-03-11T17:13:52.167Z,25.80
2023-03-11T17:16:21.205Z,8.80
2023-03-11T17:18:49.023Z,4.40
2023-03-11T17:21:17.261Z,5.57
2023-03-11T17:23:44.912Z,3.53
2023-03-11T17:26:13.767Z,3.30
2023-03-11T17:28:41.377Z,7.50
2023-03-11T17:31:12.513Z,2.10
2023-03-11T17:33:41.795Z,2.40
2023-03-11T17:36:10.336Z,2.80
2023-03-11T17:38:38.853Z,2.10
2023-03-11T17:41:07.720Z,1.93
2023-03-11T17:43:35.374Z,3.27
2023-03-11T17:46:03.080Z,2.40
2023-03-11T17:48:30.815Z,2.33
2023-03-11T17:51:01.873Z,2.38
2023-03-11T17:53:29.583Z,2.70
2023-03-11T17:55:57.402Z,2.70
2023-03-11T17:58:25.022Z,3.13
2023-03-11T18:00:55.522Z,2.30
2023-03-11T18:03:23.175Z,2.50
2023-03-11T18:05:55.076Z,2.20
2023-03-11T18:08:24.028Z,2.10
2023-03-11T18:10:51.872Z,2.50
2023-03-11T18:13:19.860Z,2.57
2023-03-11T18:15:47.690Z,2.13
2023-03-11T18:18:15.489Z,2.33
2023-03-11T18:20:45.896Z,2.60
2023-03-11T18:23:13.616Z,2.40
2023-03-11T18:25:42.612Z,2.80
2023-03-11T18:28:10.860Z,2.37
2023-03-11T18:30:38.998Z,3.03
2023-03-11T18:33:06.714Z,4.10
2023-03-11T18:35:34.298Z,3.13
2023-03-11T18:38:02.140Z,3.13
2023-03-11T18:40:29.866Z,2.67
2023-03-11T18:43:00.669Z,2.60
2023-03-11T18:45:28.364Z,2.30
2023-03-11T18:47:56.028Z,2.40
2023-03-11T18:50:23.625Z,2.17
2023-03-11T18:52:51.672Z,3.10
2023-03-11T18:55:19.601Z,2.77
2023-03-11T18:57:47.524Z,2.90
2023-03-11T19:00:22.388Z,3.10
2023-03-11T19:02:51.508Z,2.87
2023-03-11T19:05:19.370Z,3.27
2023-03-11T19:07:47.161Z,3.90
2023-03-11T19:10:17.975Z,5.60
2023-03-11T19:12:46.105Z,5.23
2023-03-11T19:15:13.897Z,5.30
2023-03-11T19:17:42.846Z,5.43
2023-03-11T19:20:11.219Z,6.53
2023-03-11T19:22:39.198Z,10.57
2023-03-11T19:25:07.044Z,13.73
2023-03-11T19:27:35.113Z,12.73
2023-03-11T19:30:02.769Z,8.07
2023-03-11T19:32:30.633Z,6.53
2023-03-11T19:34:59.826Z,4.13
2023-03-11T19:37:27.579Z,4.33
2023-03-11T19:39:55.153Z,4.60
2023-03-11T19:42:22.959Z,4.87
2023-03-11T19:44:54.394Z,4.67
2023-03-11T19:47:21.972Z,4.77
2023-03-11T19:49:49.532Z,6.30
2023-03-11T19:52:18.545Z,6.80
2023-03-11T19:54:46.048Z,8.03
2023-03-11T19:57:13.645Z,7.30
2023-03-11T19:59:41.218Z,6.53
2023-03-11T20:02:11.440Z,5.97
2023-03-11T20:04:41.841Z,7.00
2023-03-11T20:07:10.656Z,5.70
2023-03-11T20:09:39.650Z,5.97
2023-03-11T20:12:07.535Z,5.17
2023-03-11T20:14:35.306Z,5.00
2023-03-11T20:17:02.919Z,4.43
2023-03-11T20:19:30.589Z,4.40
2023-03-11T20:21:58.236Z,4.77
2023-03-11T20:24:26.027Z,4.47
2023-03-11T20:26:54.871Z,3.63
2023-03-11T20:29:22.564Z,3.80
2023-03-11T20:31:51.726Z,3.60
2023-03-11T20:34:19.299Z,3.97
2023-03-11T20:36:46.834Z,3.90
2023-03-11T20:39:14.335Z,4.37
2023-03-11T20:41:42.298Z,4.00
2023-03-11T20:44:13.043Z,4.20
2023-03-11T20:46:40.681Z,3.70
2023-03-11T20:49:08.297Z,4.33
2023-03-11T20:51:35.823Z,4.47
2023-03-11T20:54:03.495Z,4.40
2023-03-11T20:56:31.042Z,5.20
2023-03-11T20:59:00.842Z,8.27
2023-03-11T21:01:31.044Z,7.17
2023-03-11T21:03:59.656Z,5.07
2023-03-11T21:06:28.720Z,4.57
2023-03-11T21:08:56.869Z,4.80
2023-03-11T21:11:25.124Z,6.17
2023-03-11T21:13:53.057Z,5.40
2023-03-11T21:16:20.622Z,4.83
2023-03-11T21:18:49.716Z,4.73
2023-03-11T21:21:18.214Z,4.70
2023-03-11T21:23:47.870Z,4.90
2023-03-11T21:26:16.106Z,4.53
2023-03-11T21:28:46.403Z,4.30
2023-03-11T21:31:15.655Z,4.10
2023-03-11T21:33:43.646Z,4.80
2023-03-11T21:36:13.114Z,5.83
2023-03-11T21:38:41.110Z,4.17
2023-03-11T21:41:10.122Z,5.27
2023-03-11T21:43:37.919Z,5.50
2023-03-11T21:46:05.895Z,5.63
2023-03-11T21:48:33.944Z,5.30
2023-03-11T21:51:01.780Z,5.70
2023-03-11T21:53:30.715Z,4.80
2023-03-11T21:55:59.647Z,5.80
2023-03-11T21:58:27.412Z,5.27
2023-03-11T22:00:54.892Z,4.80
2023-03-11T22:03:22.625Z,5.67
2023-03-11T22:05:50.371Z,5.40
2023-03-11T22:08:17.934Z,6.13
2023-03-11T22:10:46.749Z,5.10
2023-03-11T22:13:14.197Z,4.60
2023-03-11T22:15:41.722Z,9.30
2023-03-11T22:18:09.258Z,12.00
2023-03-11T22:20:36.729Z,7.10
2023-03-11T22:23:04.216Z,5.90
2023-03-11T22:25:31.634Z,5.67
2023-03-11T22:28:00.478Z,5.87
2023-03-11T22:30:27.932Z,6.27
2023-03-11T22:32:55.570Z,6.43
2023-03-11T22:35:23.071Z,6.10
2023-03-11T22:37:50.448Z,6.03
2023-03-11T22:40:18.006Z,6.20
2023-03-11T22:42:45.485Z,7.00
2023-03-11T22:45:14.334Z,6.40
2023-03-11T22:47:41.756Z,6.43
2023-03-11T22:50:09.618Z,6.13
2023-03-11T22:52:37.047Z,5.40
2023-03-11T22:55:04.511Z,5.47
2023-03-11T22:57:38.639Z,5.80
2023-03-11T23:00:09.667Z,5.77
2023-03-11T23:02:38.526Z,6.30
2023-03-11T23:05:06.375Z,6.03
2023-03-11T23:07:33.780Z,6.17
2023-03-11T23:10:01.326Z,6.30
2023-03-11T23:12:29.010Z,6.67
2023-03-11T23:14:56.413Z,7.07
2023-03-11T23:17:23.985Z,7.10
2023-03-11T23:19:52.733Z,7.70
2023-03-11T23:22:20.229Z,6.33
2023-03-11T23:24:47.633Z,6.40
2023-03-11T23:27:15.098Z,6.83
2023-03-11T23:29:43.842Z,5.90
2023-03-11T23:32:11.555Z,5.80
2023-03-11T23:34:39.122Z,5.37
2023-03-11T23:37:07.945Z,5.50
2023-03-11T23:39:35.508Z,5.10
2023-03-11T23:42:11.806Z,4.93
2023-03-11T23:44:50.009Z,4.90
2023-03-11T23:47:17.435Z,5.10
2023-03-11T23:49:44.859Z,4.63
2023-03-11T23:52:13.639Z,5.57
2023-03-11T23:54:41.060Z,6.00
2023-03-11T23:57:08.653Z,5.37
2023-03-11T23:59:36.123Z,4.87
